Circle, Alaska
Current Conditions -  °F | °C
As of 10:16 AM on Thursday 18 Dec 2014 (Local Time) from PFYU Reporting Station
Overcast Overcast  
Wind Chill:   Ceiling: 800
Heat Index:   Visibility: 3mi
Dew Point:   Wind: 3mph
Humidity: 79%   Direction: 30°NNE
Pressure: 29.76"   Gusts: NA
Location:  65.83°N, 144.07°W
Report Text: PFYU 181916Z 03003KT 3SM BKN008 OVC012 M14/M17 A2976 RMK AO1 WX; -SN BR
Loading
Personal Weather Stations






























Interactive Weather Map New forecast layout! Learn more

10-Day Weather Forecast

Advertisements
Track Severe Weather on mobile